Terminal Aerodrome Forecast
Issued by NWS

Home | Current Version | Previous Version | Text Only | Print | Product List | Glossary On
Versions: 1 2 3 4 5 6 7 8 9 10 11 12 13 14
000
FTAK31 PAFA 122324 CCA
TAFAGA
TAF COR
PAGA 122324Z 1300/1324 11010KT P6SM BKN035 BKN050 BKN100
     FM130900 09012G22KT 1 1/2SM -FZRASN BR OVC015
     FM131200 10018G28KT 4SM -FZRASN BKN015 OVC025
      AMD NOT SKED=

USA.gov is the U.S. government's official web portal to all federal, state and local government web resources and services.